Airport Name : Curtis Fld

Other Name : Brady

ICAO : KBBD

IATA : BBD

FAA : BBD

Latitude : 31.179289

Longitude : -99.323928

Country : United States

Local Date and Time : 4/21/2018 4:52:00 AM

 

TAF (Terminal Aerodrome Forecast)

KBBD 210853Z 2109/2206 13010KT 3SM BR VCSH OVC006 FM211200 13010KT 1 1/2SM -RA OVC005 FM211600 20012G17KT P6SM OVC015 FM212100 26011KT P6SM SCT250 FM220300 01010G18KT P6SM FEW250

 

METAR (METeorological Aerodrome Report)

KBBD 210935Z AUTO 11009G15KT 3SM BR OVC004 12/12 A2998 RMK AO2

KBBD 210915Z AUTO 11008KT 4SM BR BKN004 OVC010 12/12 A2998 RMK AO2

KBBD 210855Z AUTO 12007KT 4SM BR SCT005 OVC010 12/12 A2998 RMK AO2 P0001

KBBD 210835Z AUTO 12009KT 3SM BR BKN006 OVC010 12/12 A2998 RMK AO2

KBBD 210815Z AUTO 12008KT 2 1/2SM BR OVC010 13/12 A2999 RMK AO2

KBBD 210755Z AUTO 15006KT 5SM BR OVC013 14/11 A3000 RMK AO2

KBBD 210735Z AUTO 14008KT 10SM OVC014 14/11 A3001 RMK AO2

KBBD 210715Z AUTO 15009KT 10SM OVC014 14/10 A3000 RMK AO2

KBBD 210655Z AUTO 15007KT 10SM OVC016 14/10 A3001 RMK AO2

KBBD 210635Z AUTO 17005G16KT 10SM OVC015 14/10 A3001 RMK AO2

KBBD 210615Z AUTO 15014G23KT 10SM OVC015 14/10 A2996 RMK AO2

KBBD 210555Z AUTO 15016G24KT 10SM OVC015 14/10 A2996 RMK AO2